WEATHER DATA

YESTERDAY
Time Temp. Dewp. Hum. Wind dir Wind speed Wind gust Bar. 1h Prec. 24h Prec.
00:02 3.4 3.4 100 235 0.8 1.7 1001.4 0.0000 0.0000
00:23 3.5 3.5 100 239 0.3 1.7 1001.2 0.0000 0.0000
00:32 3.4 3.4 100 250 0.8 1.4 1001 0.0000 0.0000
00:42 3.4 3.4 100 205 0.3 1.7 1000.9 0.0000 0.0000
00:53 3.4 3.4 100 213 0.8 1.4 1000.9 0.0000 0.0000
01:03 3.4 3.4 100 246 0.8 1.7 1000.9 0.1066 0.1000
01:12 3.4 3.4 100 270 0.3 1.7 1000.9 0.2133 0.2000
01:16 3.4 3.4 100 246 0.8 2.2 1000.9 0.3199 0.3000
01:26 3.3 3.3 100 250 0.8 2.2 1001 0.4266 0.4000
01:36 3.3 3.3 100 259 0.8 1.7 1001 0.6399 0.6000
01:46 3.3 3.3 100 249 0.8 1.7 1000.9 0.6399 0.6000
01:56 3.3 3.3 100 251 0.8 1.7 1001 0.6399 0.7000
02:06 3.3 3.3 100 251 0.8 1.4 1000.9 0.7465 1.0000
02:16 3.3 3.3 100 239 0.8 2.5 1000.9 0.6399 1.1000
02:26 3.4 3.4 100 246 0.8 1.4 1000.9 0.5332 1.1000
02:36 3.4 3.4 100 259 0.8 1.7 1000.9 0.5332 1.2000
02:46 3.5 3.5 100 241 1.1 3.3 1001 0.7465 1.4000
02:56 3.5 3.5 100 255 1.1 2.2 1001 0.6399 1.5000
03:06 3.5 3.5 100 247 1.1 2.2 1001 0.7465 1.7000
03:16 3.6 3.6 100 248 1.1 2.5 1001 0.7465 1.8000
03:26 3.6 3.6 100 244 1.1 2.2 1001.1 0.8532 2.0000
03:37 3.6 3.6 100 240 0.8 1.7 1001.1 0.9599 2.2000
03:46 3.6 3.6 100 255 0.8 1.4 1001.1 0.9599 2.5000
03:56 3.6 3.6 100 229 1.1 2.2 1001.1 0.8532 2.5000
04:07 3.7 3.7 100 248 1.1 2.2 1001 0.8532 2.6000
04:17 3.7 3.7 100 244 0.8 1.7 1001.1 0.8532 2.8000
04:26 3.7 3.7 100 240 1.1 2.5 1000.9 0.7465 2.9000
04:36 3.7 3.7 100 243 0.8 1.7 1000.7 0.7465 3.1000
04:47 3.7 3.7 100 244 1.1 2.5 1000.6 0.7465 3.2000
04:57 3.8 3.8 100 250 0.8 2.2 1000.5 0.6399 3.2000
05:07 3.8 3.8 100 240 0.8 1.7 1000.5 0.5332 3.2000
05:17 3.8 3.8 100 250 1.1 2.2 1000.7 0.4266 3.2000
05:27 3.8 3.8 100 256 1.1 2.5 1000.6 0.2133 3.2000
05:37 3.8 3.8 100 254 1.1 2.2 1000.3 0.1066 3.3000
05:47 3.8 3.8 100 256 1.1 2.5 1000.4 0.4266 3.6000
05:57 3.8 3.8 100 245 0.8 1.4 1000.4 1.1732 4.4000
06:07 3.7 3.7 100 270 0.3 1.4 1000.3 1.5998 4.8000
06:17 3.7 3.7 100 257 0.8 1.4 1000.7 1.9198 5.1000
06:28 3.7 3.7 100 257 1.4 3.6 1000.5 1.9198 5.2000
06:37 3.7 3.7 100 260 1.4 3.6 1000.3 2.0264 5.5000
06:47 3.7 3.7 100 249 0.8 2.2 1000.5 1.3865 5.5000
06:57 3.6 3.6 100 270 1.1 2.8 1000.4 1.7064 6.3000
07:08 3.6 3.6 100 245 1.1 2.8 1000.4 1.5998 6.5000
07:17 3.6 3.6 100 241 1.1 2.2 1000.4 1.2798 6.5000
07:27 3.6 3.6 100 242 0.8 2.5 1000.4 1.2798 6.6000
07:38 3.6 3.6 100 259 1.1 2.2 1000.5 1.2798 6.8000
07:48 3.6 3.6 100 243 1.1 2.5 1000.3 1.0665 7.0000
07:58 3.6 3.6 100 240 0.8 2.2 1000.3 0.7465 7.0000
08:07 3.6 3.6 100 238 0.8 1.7 1000.4 0.5332 7.0000
08:18 3.6 3.6 100 236 0.8 1.7 1000.4 0.4266 7.0000
08:28 3.6 3.6 100 244 1.1 2.8 1000.5 0.4266 7.0000
08:38 3.6 3.6 100 197 0.8 2.5 1000.5 0.0000 7.0000
08:48 3.6 3.6 100 225 0.8 1.4 1000.5 0.0000 7.0000
08:58 3.6 3.6 100 236 0.8 1.4 1000.6 0.0000 7.0000
09:08 3.6 3.6 100 236 0.8 2.5 1000.7 0.0000 7.0000
09:18 3.5 3.5 100 214 0.8 1.4 1000.7 0.0000 7.0000
09:28 3.5 3.5 100 227 0.8 1.4 1000.7 0.0000 7.0000
09:38 3.5 3.5 100 225 0.3 1.1 1000.7 0.0000 7.0000
09:47 3.6 3.6 100 248 0.8 1.4 1000.9 0.0000 7.0000
09:59 3.7 3.7 100 165 0.3 1.1 1000.6 0.0000 7.0000
10:08 3.8 3.8 100 225 0.3 1.1 1000.7 0.0000 7.0000
10:18 3.9 3.9 100 200 0.3 1.1 1000.6 0.0000 7.0000
10:28 4 4 100 183 0.3 1.4 1000.5 0.0000 7.0000
10:39 4.1 4.1 100 198 0.8 1.4 1000.4 0.1066 7.1000
10:48 4.1 4.1 100 192 0.8 1.1 1000.3 0.1066 7.1000
10:58 4.2 4.2 100 196 0.8 1.4 1000.3 0.1066 7.1000
11:09 4.2 4.2 100 190 0.3 1.1 1000.1 0.1066 7.1000
11:19 4.2 4.2 100 192 0.3 1.1 999.9 0.1066 7.1000
11:29 4.2 4.2 100 239 0.3 1.4 999.8 0.0000 7.1000
11:39 4.2 4.2 100 240 0.3 1.4 999.6 0.0000 7.1000
11:49 4.2 4.2 100 230 0.3 1.4 999.3 0.0000 7.1000
11:59 4.2 4.2 100 242 0.8 2.2 999.2 0.0000 7.1000
12:09 4.3 4.3 100 239 0.8 1.7 999.2 0.1066 7.3000
12:18 4.3 4.3 100 270 1.1 2.8 999.1 0.3199 7.5000
12:28 4.2 4.2 100 270 1.7 3.6 999.3 0.8532 8.0000
12:37 4.1 4.1 100 284 1.4 3.6 999.3 1.2798 8.4000
12:48 4 4 100 270 2.5 6.4 999.3 1.7064 8.9000
12:58 3.9 3.9 100 263 1.4 4.7 999.2 1.7064 9.0000
13:08 3.9 3.9 100 270 1.7 5.3 999.3 1.8131 9.1000
13:23 3.9 3.9 100 270 2.2 5 999.3 1.5998 9.3000
13:33 3.8 3.8 100 251 1.7 4.2 999.3 1.3865 9.7000
13:43 3.7 3.7 100 261 1.7 4.2 999.5 1.5998 10.1000
13:54 3.6 3.6 100 270 1.7 5 999.6 1.4931 10.5000
14:03 3.4 3.4 100 261 1.7 4.2 999.8 1.5998 10.7000
14:13 3.3 3.3 100 276 1.4 3.6 999.9 1.5998 10.7000
14:23 3.3 3.3 100 290 0.8 2.5 1000 1.4931 10.8000
14:34 3.2 3.2 100 250 1.1 3.3 1000.3 1.5998 11.3000
14:43 3.2 3.2 100 270 1.4 3.3 1000.5 1.1732 11.3000
14:53 3.1 3.1 100 258 1.7 4.2 1000.6 0.8532 11.3000
15:04 3 3 100 251 1.1 2.5 1000.7 0.6399 11.3000
15:14 3 3 100 260 1.4 3.9 1001 0.6399 11.3000
15:24 2.9 2.9 100 286 1.4 3.9 1001.3 0.6399 11.4000
15:28 2.9 2.9 100 270 2.5 7.5 1001.4 0.1066 11.4000
15:39 2.8 2.8 100 282 1.4 3.3 1001.8 0.1066 11.4000
15:48 2.8 2.8 100 260 1.7 5 1002 0.1066 11.4000
15:58 2.8 2.8 100 263 1.7 4.7 1002.2 0.1066 11.4000
16:09 2.7 2.7 100 279 1.4 3.9 1002.5 0.1066 11.4000
16:19 2.6 2.6 100 255 1.7 3.3 1002.7 0.0000 11.4000
16:28 2.5 2.5 100 270 0.8 2.5 1002.8 0.0000 11.4000
16:38 2.4 2.4 100 259 1.1 3.3 1002.9 0.1066 11.5000
16:47 2.3 2.3 100 270 0.8 2.2 1002.9 0.3199 11.7000
16:57 2.3 2.3 100 270 0.8 1.7 1003.4 0.3199 11.7000
17:08 1.9 1.9 100 270 1.1 3.3 1003.6 0.3199 11.7000
17:18 1.6 1.6 100 285 1.1 2.2 1003.8 0.3199 11.7000
17:27 1.4 1.4 100 264 1.4 3.9 1003.9 0.3199 11.7000
17:37 1.2 1.2 100 250 1.1 3.9 1004.1 0.2133 11.7000
17:48 1 1 100 270 1.1 2.8 1004.2 0.0000 11.7000
17:58 0.9 0.9 100 253 1.1 3.3 1004.4 0.0000 11.7000
18:07 0.9 0.9 100 241 1.1 2.8 1004.5 0.0000 11.7000
18:18 0.9 0.9 100 237 0.3 1.4 1004.7 0.0000 11.7000
18:28 0.9 0.9 100 270 1.4 2.8 1004.9 0.0000 11.7000
18:37 0.9 0.9 100 243 0.8 1.7 1005 0.0000 11.7000
18:47 0.9 0.9 100 262 1.4 2.8 1005.3 0.0000 11.7000
18:58 0.9 0.9 100 258 1.4 3.6 1005.4 0.0000 11.7000
19:08 0.9 0.9 100 270 0.8 2.2 1005.4 0.0000 11.7000
19:17 0.9 0.9 100 245 1.1 4.2 1005.6 0.0000 11.7000
19:28 0.8 0.8 100 257 1.1 3.6 1005.7 0.0000 11.7000
19:38 0.7 0.7 100 270 0.3 1.1 1005.9 0.0000 11.7000
19:48 0.6 0.6 100 249 1.1 3.3 1006 0.0000 11.7000
19:58 0.5 0.5 100 259 0.8 1.4 1006.2 0.0000 11.7000
20:08 0.4 0.4 100 270 0.8 2.2 1006.3 0.0000 11.7000
20:18 0.4 0.4 100 251 0.8 1.7 1006.5 0.0000 11.7000
20:28 0.3 0.3 100 255 0.8 1.4 1006.7 0.0000 11.7000
20:38 0.3 0.3 100 270 0.8 2.2 1006.8 0.0000 11.7000
21:03 0.3 0.3 100 260 0.8 1.4 1007.5 0.0000 11.7000
21:13 0.2 0.2 100 270 1.1 2.8 1007.5 0.0000 11.7000
21:23 0.2 0.2 100 245 1.4 3.6 1007.8 0.0000 11.7000
21:33 0.2 0.2 100 253 1.1 2.5 1008.1 0.0000 11.7000
21:37 0.2 0.2 100 262 1.1 6.4 1008.2 0.0000 11.7000
21:47 0.2 0.2 100 270 1.1 2.2 1008.4 0.0000 11.7000
21:56 0.2 0.2 100 248 0.8 1.7 1008.6 0.0000 11.7000
22:07 0.2 0.2 100 260 0.8 2.2 1008.9 0.0000 11.7000
22:17 0.2 0.2 100 294 1.1 2.5 1009.2 0.0000 11.7000
22:27 0.2 0.2 100 250 1.1 3.3 1009.4 0.0000 11.7000
22:36 0.2 0.2 100 253 0.8 2.5 1009.6 0.0000 11.7000
22:47 0.2 0.2 100 270 0.8 2.2 1009.8 0.0000 11.7000
22:57 0.2 0.2 100 250 0.8 1.7 1009.9 0.0000 11.7000
23:06 0.2 0.2 100 248 0.8 1.7 1010.1 0.0000 11.7000
23:17 0.2 0.2 100 256 0.8 1.7 1010.2 0.0000 11.7000
23:27 0.2 0.2 100 270 0.3 1.4 1010.3 0.0000 11.7000
23:37 0.2 0.2 100 270 0.8 1.4 1010.4 0.0000 11.7000
23:47 0.2 0.2 100 270 0.8 2.2 1010.5 0.0000 11.7000
23:57 0.2 0.2 100 253 1.1 3.6 1010.5 0.0000 11.7000

DAY STATISTIC

2019-01-17
TEMPERATURE
AVERAGE
2.7
HIGH
4.3
12:09
LOW
0.2
21:13
PRESSURE
AVERAGE
1002.5
HIGH
1010.5
23:47
LOW
999.1
12:18
DEWPOINT
AVERAGE
2.7
HIGH
4.3
12:09
LOW
0.2
21:13
HUMIDITY
AVERAGE
100
HIGH
100
00:02
LOW
100
00:02
WIND SPEED
AVERAGE
1.0
HIGH
2.5
12:48
WIND GUST
AVERAGE
2.5
HIGH
7.5
15:28
WIND DIRECTION
PREVAILING
W
62.2%
N
0.0
NE
0.0
E
0.0
SE
0.0
S
6.3
SW
30.8
W
62.2
NW
0.7
PRECIPITATION
RAIN HOUR
2.0
RAIN DAY
11.7
TEMPERATURE (°C)
LOW
0.2
HIGH
4.3
AVERAGE
2.7
PRESSURE (hpa)
LOW
999.1
HIGH
1010.5
AVERAGE
1002.5
DEVICE